sensor_id;sensor_type;location;lat;lon;timestamp;P1;durP1;ratioP1;P2;durP2;ratioP2
4835;SDS011;66719;51.226;6.902;2023-12-20T00:01:01;14.30;;;5.70;;
4835;SDS011;66719;51.226;6.902;2023-12-20T00:03:28;16.60;;;5.10;;
4835;SDS011;66719;51.226;6.902;2023-12-20T00:06:07;12.80;;;5.30;;
4835;SDS011;66719;51.226;6.902;2023-12-20T00:08:33;16.90;;;4.87;;
4835;SDS011;66719;51.226;6.902;2023-12-20T00:11:00;17.77;;;7.07;;
4835;SDS011;66719;51.226;6.902;2023-12-20T00:13:26;16.73;;;4.77;;
4835;SDS011;66719;51.226;6.902;2023-12-20T00:15:53;22.43;;;6.30;;
4835;SDS011;66719;51.226;6.902;2023-12-20T00:18:19;17.47;;;5.67;;
4835;SDS011;66719;51.226;6.902;2023-12-20T00:20:46;24.43;;;5.90;;
4835;SDS011;66719;51.226;6.902;2023-12-20T00:23:12;12.00;;;4.50;;
4835;SDS011;66719;51.226;6.902;2023-12-20T00:25:39;20.77;;;5.63;;
4835;SDS011;66719;51.226;6.902;2023-12-20T00:28:05;18.03;;;4.93;;
4835;SDS011;66719;51.226;6.902;2023-12-20T00:30:32;17.53;;;4.50;;
4835;SDS011;66719;51.226;6.902;2023-12-20T00:32:59;14.87;;;4.70;;
4835;SDS011;66719;51.226;6.902;2023-12-20T00:35:26;17.73;;;5.43;;
4835;SDS011;66719;51.226;6.902;2023-12-20T00:37:53;19.63;;;4.70;;
4835;SDS011;66719;51.226;6.902;2023-12-20T00:40:19;12.17;;;5.27;;
4835;SDS011;66719;51.226;6.902;2023-12-20T00:42:47;20.67;;;5.70;;
4835;SDS011;66719;51.226;6.902;2023-12-20T00:45:14;14.73;;;5.00;;
4835;SDS011;66719;51.226;6.902;2023-12-20T00:47:40;18.30;;;6.07;;
4835;SDS011;66719;51.226;6.902;2023-12-20T00:50:08;21.00;;;6.10;;
4835;SDS011;66719;51.226;6.902;2023-12-20T00:52:35;14.43;;;5.23;;
4835;SDS011;66719;51.226;6.902;2023-12-20T00:55:02;17.63;;;5.97;;
4835;SDS011;66719;51.226;6.902;2023-12-20T00:57:30;16.47;;;5.90;;
4835;SDS011;66719;51.226;6.902;2023-12-20T00:59:57;15.47;;;6.23;;
4835;SDS011;66719;51.226;6.902;2023-12-20T01:02:24;14.80;;;6.30;;
4835;SDS011;66719;51.226;6.902;2023-12-20T01:04:51;19.90;;;6.07;;
4835;SDS011;66719;51.226;6.902;2023-12-20T01:07:17;14.60;;;5.80;;
4835;SDS011;66719;51.226;6.902;2023-12-20T01:09:44;23.23;;;6.80;;
4835;SDS011;66719;51.226;6.902;2023-12-20T01:12:10;16.77;;;7.20;;
4835;SDS011;66719;51.226;6.902;2023-12-20T01:14:37;23.53;;;7.40;;
4835;SDS011;66719;51.226;6.902;2023-12-20T01:17:05;21.43;;;6.90;;
4835;SDS011;66719;51.226;6.902;2023-12-20T01:19:32;20.47;;;8.00;;
4835;SDS011;66719;51.226;6.902;2023-12-20T01:21:58;16.13;;;7.47;;
4835;SDS011;66719;51.226;6.902;2023-12-20T01:24:25;19.90;;;8.27;;
4835;SDS011;66719;51.226;6.902;2023-12-20T01:26:51;18.73;;;9.30;;
4835;SDS011;66719;51.226;6.902;2023-12-20T01:29:18;23.00;;;10.33;;
4835;SDS011;66719;51.226;6.902;2023-12-20T01:31:45;23.47;;;10.90;;
4835;SDS011;66719;51.226;6.902;2023-12-20T01:34:12;27.60;;;12.60;;
4835;SDS011;66719;51.226;6.902;2023-12-20T01:36:39;23.47;;;11.77;;
4835;SDS011;66719;51.226;6.902;2023-12-20T01:39:05;25.00;;;12.60;;
4835;SDS011;66719;51.226;6.902;2023-12-20T01:41:49;30.10;;;13.80;;
4835;SDS011;66719;51.226;6.902;2023-12-20T01:44:16;24.30;;;12.90;;
4835;SDS011;66719;51.226;6.902;2023-12-20T01:46:42;39.33;;;14.87;;
4835;SDS011;66719;51.226;6.902;2023-12-20T01:49:09;27.13;;;15.23;;
4835;SDS011;66719;51.226;6.902;2023-12-20T01:51:36;25.90;;;14.13;;
4835;SDS011;66719;51.226;6.902;2023-12-20T01:54:02;30.23;;;13.10;;
4835;SDS011;66719;51.226;6.902;2023-12-20T01:56:30;24.33;;;13.90;;
4835;SDS011;66719;51.226;6.902;2023-12-20T01:58:58;23.57;;;11.90;;
4835;SDS011;66719;51.226;6.902;2023-12-20T02:01:26;27.80;;;11.70;;
4835;SDS011;66719;51.226;6.902;2023-12-20T02:03:55;29.77;;;12.17;;
4835;SDS011;66719;51.226;6.902;2023-12-20T02:06:23;28.53;;;11.70;;
4835;SDS011;66719;51.226;6.902;2023-12-20T02:08:55;30.47;;;11.57;;
4835;SDS011;66719;51.226;6.902;2023-12-20T02:11:22;29.33;;;10.40;;
4835;SDS011;66719;51.226;6.902;2023-12-20T02:13:49;30.87;;;9.77;;
4835;SDS011;66719;51.226;6.902;2023-12-20T02:16:16;21.40;;;10.17;;
4835;SDS011;66719;51.226;6.902;2023-12-20T02:18:43;25.60;;;9.83;;
4835;SDS011;66719;51.226;6.902;2023-12-20T02:21:10;31.83;;;9.73;;
4835;SDS011;66719;51.226;6.902;2023-12-20T02:23:37;30.30;;;10.20;;
4835;SDS011;66719;51.226;6.902;2023-12-20T02:26:04;32.73;;;10.40;;
4835;SDS011;66719;51.226;6.902;2023-12-20T02:28:31;23.40;;;9.17;;
4835;SDS011;66719;51.226;6.902;2023-12-20T02:30:58;26.13;;;8.47;;
4835;SDS011;66719;51.226;6.902;2023-12-20T02:33:25;25.37;;;9.37;;
4835;SDS011;66719;51.226;6.902;2023-12-20T02:35:51;31.63;;;9.83;;
4835;SDS011;66719;51.226;6.902;2023-12-20T02:38:19;23.30;;;8.83;;
4835;SDS011;66719;51.226;6.902;2023-12-20T02:40:45;27.70;;;10.00;;
4835;SDS011;66719;51.226;6.902;2023-12-20T02:43:15;20.80;;;8.73;;
4835;SDS011;66719;51.226;6.902;2023-12-20T02:45:42;28.27;;;10.57;;
4835;SDS011;66719;51.226;6.902;2023-12-20T02:48:08;32.20;;;9.67;;
4835;SDS011;66719;51.226;6.902;2023-12-20T02:50:35;30.53;;;8.80;;
4835;SDS011;66719;51.226;6.902;2023-12-20T02:53:01;25.23;;;8.70;;
4835;SDS011;66719;51.226;6.902;2023-12-20T02:55:28;27.53;;;7.83;;
4835;SDS011;66719;51.226;6.902;2023-12-20T02:57:55;27.53;;;8.60;;
4835;SDS011;66719;51.226;6.902;2023-12-20T03:00:21;25.83;;;7.40;;
4835;SDS011;66719;51.226;6.902;2023-12-20T03:02:48;29.67;;;7.27;;
4835;SDS011;66719;51.226;6.902;2023-12-20T03:05:14;29.73;;;7.30;;
4835;SDS011;66719;51.226;6.902;2023-12-20T03:07:41;27.20;;;6.20;;
4835;SDS011;66719;51.226;6.902;2023-12-20T03:10:08;33.73;;;7.17;;
4835;SDS011;66719;51.226;6.902;2023-12-20T03:12:45;24.10;;;5.47;;
4835;SDS011;66719;51.226;6.902;2023-12-20T03:15:12;19.13;;;5.37;;
4835;SDS011;66719;51.226;6.902;2023-12-20T03:17:39;28.77;;;6.33;;
4835;SDS011;66719;51.226;6.902;2023-12-20T03:20:06;27.93;;;5.10;;
4835;SDS011;66719;51.226;6.902;2023-12-20T03:22:33;25.67;;;6.10;;
4835;SDS011;66719;51.226;6.902;2023-12-20T03:25:00;26.10;;;5.00;;
4835;SDS011;66719;51.226;6.902;2023-12-20T03:27:27;25.33;;;6.23;;
4835;SDS011;66719;51.226;6.902;2023-12-20T03:29:53;20.60;;;6.10;;
4835;SDS011;66719;51.226;6.902;2023-12-20T03:32:20;26.17;;;5.03;;
4835;SDS011;66719;51.226;6.902;2023-12-20T03:34:46;29.27;;;6.50;;
4835;SDS011;66719;51.226;6.902;2023-12-20T03:37:14;28.73;;;5.77;;
4835;SDS011;66719;51.226;6.902;2023-12-20T03:39:41;31.37;;;6.20;;
4835;SDS011;66719;51.226;6.902;2023-12-20T03:42:08;28.60;;;6.07;;
4835;SDS011;66719;51.226;6.902;2023-12-20T03:44:37;31.23;;;5.63;;
4835;SDS011;66719;51.226;6.902;2023-12-20T03:47:05;28.57;;;5.40;;
4835;SDS011;66719;51.226;6.902;2023-12-20T03:49:32;22.53;;;4.97;;
4835;SDS011;66719;51.226;6.902;2023-12-20T03:51:59;18.77;;;4.83;;
4835;SDS011;66719;51.226;6.902;2023-12-20T03:54:25;29.00;;;5.40;;
4835;SDS011;66719;51.226;6.902;2023-12-20T03:56:52;36.57;;;6.00;;
4835;SDS011;66719;51.226;6.902;2023-12-20T03:59:18;18.57;;;4.60;;
4835;SDS011;66719;51.226;6.902;2023-12-20T04:01:45;26.10;;;4.50;;
4835;SDS011;66719;51.226;6.902;2023-12-20T04:04:12;24.90;;;5.40;;
4835;SDS011;66719;51.226;6.902;2023-12-20T04:06:39;20.80;;;4.67;;
4835;SDS011;66719;51.226;6.902;2023-12-20T04:09:06;27.50;;;5.30;;
4835;SDS011;66719;51.226;6.902;2023-12-20T04:11:36;23.00;;;5.10;;
4835;SDS011;66719;51.226;6.902;2023-12-20T04:14:03;34.33;;;5.30;;
4835;SDS011;66719;51.226;6.902;2023-12-20T04:16:31;28.40;;;5.00;;
4835;SDS011;66719;51.226;6.902;2023-12-20T04:18:57;30.43;;;4.50;;
4835;SDS011;66719;51.226;6.902;2023-12-20T04:21:24;30.33;;;4.43;;
4835;SDS011;66719;51.226;6.902;2023-12-20T04:23:51;22.93;;;5.20;;
4835;SDS011;66719;51.226;6.902;2023-12-20T04:26:17;34.17;;;6.17;;
4835;SDS011;66719;51.226;6.902;2023-12-20T04:28:44;26.30;;;5.50;;
4835;SDS011;66719;51.226;6.902;2023-12-20T04:31:10;20.80;;;4.50;;
4835;SDS011;66719;51.226;6.902;2023-12-20T04:33:37;24.87;;;4.93;;
4835;SDS011;66719;51.226;6.902;2023-12-20T04:36:04;25.20;;;5.47;;
4835;SDS011;66719;51.226;6.902;2023-12-20T04:38:30;24.80;;;5.13;;
4835;SDS011;66719;51.226;6.902;2023-12-20T04:40:57;26.43;;;5.17;;
4835;SDS011;66719;51.226;6.902;2023-12-20T04:43:23;28.97;;;5.00;;
4835;SDS011;66719;51.226;6.902;2023-12-20T04:45:51;19.67;;;5.17;;
4835;SDS011;66719;51.226;6.902;2023-12-20T04:48:17;45.20;;;6.00;;
4835;SDS011;66719;51.226;6.902;2023-12-20T04:50:44;29.93;;;5.93;;
4835;SDS011;66719;51.226;6.902;2023-12-20T04:53:10;29.47;;;5.47;;
4835;SDS011;66719;51.226;6.902;2023-12-20T04:55:37;24.07;;;5.90;;
4835;SDS011;66719;51.226;6.902;2023-12-20T04:58:05;32.27;;;6.17;;
4835;SDS011;66719;51.226;6.902;2023-12-20T05:00:32;33.37;;;6.03;;
4835;SDS011;66719;51.226;6.902;2023-12-20T05:02:58;20.90;;;5.53;;
4835;SDS011;66719;51.226;6.902;2023-12-20T05:05:25;24.63;;;5.80;;
4835;SDS011;66719;51.226;6.902;2023-12-20T05:07:51;34.90;;;6.50;;
4835;SDS011;66719;51.226;6.902;2023-12-20T05:10:19;37.47;;;7.30;;
4835;SDS011;66719;51.226;6.902;2023-12-20T05:12:45;30.27;;;6.20;;
4835;SDS011;66719;51.226;6.902;2023-12-20T05:15:12;24.03;;;5.50;;
4835;SDS011;66719;51.226;6.902;2023-12-20T05:17:38;26.70;;;7.00;;
4835;SDS011;66719;51.226;6.902;2023-12-20T05:20:05;40.07;;;8.37;;
4835;SDS011;66719;51.226;6.902;2023-12-20T05:22:32;28.83;;;7.00;;
4835;SDS011;66719;51.226;6.902;2023-12-20T05:24:59;29.60;;;6.13;;
4835;SDS011;66719;51.226;6.902;2023-12-20T05:27:26;30.03;;;7.10;;
4835;SDS011;66719;51.226;6.902;2023-12-20T05:29:52;33.20;;;5.93;;
4835;SDS011;66719;51.226;6.902;2023-12-20T05:32:19;33.43;;;6.43;;
4835;SDS011;66719;51.226;6.902;2023-12-20T05:34:45;29.63;;;6.63;;
4835;SDS011;66719;51.226;6.902;2023-12-20T05:37:12;39.50;;;7.20;;
4835;SDS011;66719;51.226;6.902;2023-12-20T05:39:39;31.60;;;6.30;;
4835;SDS011;66719;51.226;6.902;2023-12-20T05:42:05;29.80;;;6.33;;
4835;SDS011;66719;51.226;6.902;2023-12-20T05:44:32;25.50;;;7.30;;
4835;SDS011;66719;51.226;6.902;2023-12-20T05:46:58;20.90;;;5.87;;
4835;SDS011;66719;51.226;6.902;2023-12-20T05:49:25;32.10;;;6.33;;
4835;SDS011;66719;51.226;6.902;2023-12-20T05:51:51;43.20;;;5.97;;
4835;SDS011;66719;51.226;6.902;2023-12-20T05:54:18;30.63;;;6.70;;
4835;SDS011;66719;51.226;6.902;2023-12-20T05:56:44;26.77;;;6.23;;
4835;SDS011;66719;51.226;6.902;2023-12-20T05:59:11;30.00;;;5.93;;
4835;SDS011;66719;51.226;6.902;2023-12-20T06:01:38;28.27;;;5.33;;
4835;SDS011;66719;51.226;6.902;2023-12-20T06:04:04;21.43;;;5.43;;
4835;SDS011;66719;51.226;6.902;2023-12-20T06:06:31;22.90;;;5.63;;
4835;SDS011;66719;51.226;6.902;2023-12-20T06:08:57;30.63;;;6.03;;
4835;SDS011;66719;51.226;6.902;2023-12-20T06:11:24;34.07;;;6.13;;
4835;SDS011;66719;51.226;6.902;2023-12-20T06:13:51;26.63;;;5.67;;
4835;SDS011;66719;51.226;6.902;2023-12-20T06:16:19;33.70;;;6.17;;
4835;SDS011;66719;51.226;6.902;2023-12-20T06:18:46;30.00;;;6.40;;
4835;SDS011;66719;51.226;6.902;2023-12-20T06:21:12;44.20;;;7.03;;
4835;SDS011;66719;51.226;6.902;2023-12-20T06:23:39;28.13;;;5.70;;
4835;SDS011;66719;51.226;6.902;2023-12-20T06:26:06;36.43;;;6.13;;
4835;SDS011;66719;51.226;6.902;2023-12-20T06:28:32;31.43;;;7.00;;
4835;SDS011;66719;51.226;6.902;2023-12-20T06:30:59;33.87;;;5.53;;
4835;SDS011;66719;51.226;6.902;2023-12-20T06:33:27;32.33;;;6.27;;
4835;SDS011;66719;51.226;6.902;2023-12-20T06:35:53;30.47;;;6.00;;
4835;SDS011;66719;51.226;6.902;2023-12-20T06:38:20;30.80;;;6.40;;
4835;SDS011;66719;51.226;6.902;2023-12-20T06:40:46;29.10;;;6.10;;
4835;SDS011;66719;51.226;6.902;2023-12-20T06:43:13;28.43;;;7.73;;
4835;SDS011;66719;51.226;6.902;2023-12-20T06:45:57;30.50;;;6.70;;
4835;SDS011;66719;51.226;6.902;2023-12-20T06:48:24;22.60;;;6.80;;
4835;SDS011;66719;51.226;6.902;2023-12-20T06:50:51;33.37;;;6.47;;
4835;SDS011;66719;51.226;6.902;2023-12-20T06:53:17;32.47;;;6.80;;
4835;SDS011;66719;51.226;6.902;2023-12-20T06:55:44;26.97;;;6.80;;
4835;SDS011;66719;51.226;6.902;2023-12-20T06:58:10;30.47;;;6.97;;
4835;SDS011;66719;51.226;6.902;2023-12-20T07:00:37;25.60;;;7.90;;
4835;SDS011;66719;51.226;6.902;2023-12-20T07:03:04;29.60;;;6.37;;
4835;SDS011;66719;51.226;6.902;2023-12-20T07:05:31;34.97;;;6.60;;
4835;SDS011;66719;51.226;6.902;2023-12-20T07:07:57;23.70;;;6.20;;
4835;SDS011;66719;51.226;6.902;2023-12-20T07:10:24;29.77;;;7.20;;
4835;SDS011;66719;51.226;6.902;2023-12-20T07:12:51;30.47;;;6.40;;
4835;SDS011;66719;51.226;6.902;2023-12-20T07:15:18;25.27;;;6.40;;
4835;SDS011;66719;51.226;6.902;2023-12-20T07:17:45;36.70;;;7.07;;
4835;SDS011;66719;51.226;6.902;2023-12-20T07:20:12;32.60;;;6.33;;
4835;SDS011;66719;51.226;6.902;2023-12-20T07:22:38;31.07;;;6.63;;
4835;SDS011;66719;51.226;6.902;2023-12-20T07:25:06;29.87;;;6.63;;
4835;SDS011;66719;51.226;6.902;2023-12-20T07:27:33;25.07;;;6.20;;
4835;SDS011;66719;51.226;6.902;2023-12-20T07:29:59;39.17;;;8.00;;
4835;SDS011;66719;51.226;6.902;2023-12-20T07:32:26;49.17;;;6.20;;
4835;SDS011;66719;51.226;6.902;2023-12-20T07:34:53;37.93;;;7.10;;
4835;SDS011;66719;51.226;6.902;2023-12-20T07:37:21;33.27;;;6.90;;
4835;SDS011;66719;51.226;6.902;2023-12-20T07:39:47;40.33;;;7.00;;
4835;SDS011;66719;51.226;6.902;2023-12-20T07:42:14;31.33;;;6.10;;
4835;SDS011;66719;51.226;6.902;2023-12-20T07:44:41;36.80;;;7.37;;
4835;SDS011;66719;51.226;6.902;2023-12-20T07:47:08;27.40;;;6.70;;
4835;SDS011;66719;51.226;6.902;2023-12-20T07:49:34;35.87;;;7.23;;
4835;SDS011;66719;51.226;6.902;2023-12-20T07:52:01;39.80;;;7.63;;
4835;SDS011;66719;51.226;6.902;2023-12-20T07:54:28;26.33;;;6.40;;
4835;SDS011;66719;51.226;6.902;2023-12-20T07:56:55;24.67;;;6.40;;
4835;SDS011;66719;51.226;6.902;2023-12-20T07:59:23;35.73;;;5.80;;
4835;SDS011;66719;51.226;6.902;2023-12-20T08:01:58;31.60;;;6.43;;
4835;SDS011;66719;51.226;6.902;2023-12-20T08:04:25;28.87;;;6.57;;
4835;SDS011;66719;51.226;6.902;2023-12-20T08:06:52;24.40;;;6.40;;
4835;SDS011;66719;51.226;6.902;2023-12-20T08:09:19;31.20;;;6.60;;
4835;SDS011;66719;51.226;6.902;2023-12-20T08:11:46;31.63;;;7.00;;
4835;SDS011;66719;51.226;6.902;2023-12-20T08:14:13;35.07;;;6.20;;
4835;SDS011;66719;51.226;6.902;2023-12-20T08:16:43;25.43;;;6.23;;
4835;SDS011;66719;51.226;6.902;2023-12-20T08:19:10;26.70;;;6.93;;
4835;SDS011;66719;51.226;6.902;2023-12-20T08:21:36;31.80;;;7.20;;
4835;SDS011;66719;51.226;6.902;2023-12-20T08:24:04;35.03;;;5.97;;
4835;SDS011;66719;51.226;6.902;2023-12-20T08:26:32;33.23;;;7.00;;
4835;SDS011;66719;51.226;6.902;2023-12-20T08:28:59;41.13;;;7.80;;
4835;SDS011;66719;51.226;6.902;2023-12-20T08:31:27;31.97;;;7.07;;
4835;SDS011;66719;51.226;6.902;2023-12-20T08:33:54;27.03;;;6.80;;
4835;SDS011;66719;51.226;6.902;2023-12-20T08:36:21;35.30;;;5.70;;
4835;SDS011;66719;51.226;6.902;2023-12-20T08:38:49;27.73;;;7.07;;
4835;SDS011;66719;51.226;6.902;2023-12-20T08:41:17;23.77;;;6.50;;
4835;SDS011;66719;51.226;6.902;2023-12-20T08:43:44;28.10;;;6.57;;
4835;SDS011;66719;51.226;6.902;2023-12-20T08:46:11;23.93;;;7.00;;
4835;SDS011;66719;51.226;6.902;2023-12-20T08:48:38;32.20;;;6.60;;
4835;SDS011;66719;51.226;6.902;2023-12-20T08:51:05;38.50;;;6.40;;
4835;SDS011;66719;51.226;6.902;2023-12-20T08:53:35;35.77;;;6.10;;
4835;SDS011;66719;51.226;6.902;2023-12-20T08:56:02;31.37;;;6.40;;
4835;SDS011;66719;51.226;6.902;2023-12-20T08:58:29;33.43;;;6.40;;
4835;SDS011;66719;51.226;6.902;2023-12-20T09:00:56;29.53;;;5.67;;
4835;SDS011;66719;51.226;6.902;2023-12-20T09:03:24;25.53;;;5.60;;
4835;SDS011;66719;51.226;6.902;2023-12-20T09:05:50;29.57;;;7.53;;
4835;SDS011;66719;51.226;6.902;2023-12-20T09:08:17;37.77;;;6.57;;
4835;SDS011;66719;51.226;6.902;2023-12-20T09:10:44;26.63;;;6.10;;
4835;SDS011;66719;51.226;6.902;2023-12-20T09:13:11;34.77;;;6.97;;
4835;SDS011;66719;51.226;6.902;2023-12-20T09:15:38;19.77;;;5.47;;
4835;SDS011;66719;51.226;6.902;2023-12-20T09:18:04;21.00;;;5.30;;
4835;SDS011;66719;51.226;6.902;2023-12-20T09:20:32;28.93;;;5.80;;
4835;SDS011;66719;51.226;6.902;2023-12-20T09:22:59;34.30;;;6.63;;
4835;SDS011;66719;51.226;6.902;2023-12-20T09:25:26;29.90;;;5.53;;
4835;SDS011;66719;51.226;6.902;2023-12-20T09:27:53;29.00;;;4.87;;
4835;SDS011;66719;51.226;6.902;2023-12-20T09:30:20;28.17;;;5.60;;
4835;SDS011;66719;51.226;6.902;2023-12-20T09:32:53;26.60;;;5.77;;
4835;SDS011;66719;51.226;6.902;2023-12-20T09:35:21;25.93;;;6.00;;
4835;SDS011;66719;51.226;6.902;2023-12-20T09:37:49;38.30;;;5.70;;
4835;SDS011;66719;51.226;6.902;2023-12-20T09:40:17;30.03;;;4.53;;
4835;SDS011;66719;51.226;6.902;2023-12-20T09:42:58;31.80;;;5.53;;
4835;SDS011;66719;51.226;6.902;2023-12-20T09:45:30;20.23;;;4.70;;
4835;SDS011;66719;51.226;6.902;2023-12-20T09:47:58;28.53;;;5.80;;
4835;SDS011;66719;51.226;6.902;2023-12-20T09:50:25;25.17;;;5.10;;
4835;SDS011;66719;51.226;6.902;2023-12-20T09:52:53;31.20;;;5.00;;
4835;SDS011;66719;51.226;6.902;2023-12-20T09:55:20;23.63;;;4.93;;
4835;SDS011;66719;51.226;6.902;2023-12-20T09:57:48;24.10;;;5.57;;
4835;SDS011;66719;51.226;6.902;2023-12-20T10:00:15;28.07;;;5.13;;
4835;SDS011;66719;51.226;6.902;2023-12-20T10:02:50;34.27;;;5.33;;
4835;SDS011;66719;51.226;6.902;2023-12-20T10:05:32;22.17;;;5.93;;
4835;SDS011;66719;51.226;6.902;2023-12-20T10:08:01;26.63;;;4.90;;
4835;SDS011;66719;51.226;6.902;2023-12-20T10:10:28;26.97;;;5.50;;
4835;SDS011;66719;51.226;6.902;2023-12-20T10:13:11;43.60;;;5.27;;
4835;SDS011;66719;51.226;6.902;2023-12-20T10:15:38;27.43;;;5.60;;
4835;SDS011;66719;51.226;6.902;2023-12-20T10:18:05;20.63;;;4.73;;
4835;SDS011;66719;51.226;6.902;2023-12-20T10:20:33;21.57;;;4.50;;
4835;SDS011;66719;51.226;6.902;2023-12-20T10:23:00;23.73;;;4.87;;
4835;SDS011;66719;51.226;6.902;2023-12-20T10:25:27;27.40;;;5.47;;
4835;SDS011;66719;51.226;6.902;2023-12-20T10:30:41;22.77;;;5.03;;
4835;SDS011;66719;51.226;6.902;2023-12-20T10:33:08;23.57;;;5.10;;
4835;SDS011;66719;51.226;6.902;2023-12-20T10:35:37;34.57;;;7.00;;
4835;SDS011;66719;51.226;6.902;2023-12-20T10:38:06;18.93;;;4.67;;
4835;SDS011;66719;51.226;6.902;2023-12-20T10:40:36;26.37;;;5.13;;
4835;SDS011;66719;51.226;6.902;2023-12-20T10:43:04;34.97;;;6.10;;
4835;SDS011;66719;51.226;6.902;2023-12-20T10:45:31;29.20;;;5.30;;
4835;SDS011;66719;51.226;6.902;2023-12-20T10:47:58;22.00;;;5.03;;
4835;SDS011;66719;51.226;6.902;2023-12-20T10:50:26;29.50;;;5.50;;
4835;SDS011;66719;51.226;6.902;2023-12-20T10:52:55;29.30;;;5.90;;
4835;SDS011;66719;51.226;6.902;2023-12-20T10:55:22;21.20;;;4.37;;
4835;SDS011;66719;51.226;6.902;2023-12-20T11:00:46;30.13;;;9.80;;
4835;SDS011;66719;51.226;6.902;2023-12-20T11:03:14;35.63;;;5.13;;
4835;SDS011;66719;51.226;6.902;2023-12-20T11:05:54;25.03;;;5.10;;
4835;SDS011;66719;51.226;6.902;2023-12-20T11:08:33;29.37;;;5.03;;
4835;SDS011;66719;51.226;6.902;2023-12-20T11:11:07;19.70;;;4.47;;
4835;SDS011;66719;51.226;6.902;2023-12-20T11:13:48;27.70;;;4.87;;
4835;SDS011;66719;51.226;6.902;2023-12-20T11:16:21;21.30;;;4.03;;
4835;SDS011;66719;51.226;6.902;2023-12-20T11:18:51;17.30;;;4.40;;
4835;SDS011;66719;51.226;6.902;2023-12-20T11:21:18;16.03;;;4.17;;
4835;SDS011;66719;51.226;6.902;2023-12-20T11:23:45;29.07;;;4.90;;
4835;SDS011;66719;51.226;6.902;2023-12-20T11:26:13;31.63;;;4.27;;
4835;SDS011;66719;51.226;6.902;2023-12-20T11:28:42;25.20;;;5.43;;
4835;SDS011;66719;51.226;6.902;2023-12-20T11:31:08;22.60;;;5.30;;
4835;SDS011;66719;51.226;6.902;2023-12-20T11:33:40;24.73;;;4.87;;
4835;SDS011;66719;51.226;6.902;2023-12-20T11:36:13;26.90;;;5.33;;
4835;SDS011;66719;51.226;6.902;2023-12-20T11:38:55;30.67;;;5.07;;
4835;SDS011;66719;51.226;6.902;2023-12-20T11:41:23;19.63;;;4.67;;
4835;SDS011;66719;51.226;6.902;2023-12-20T11:43:53;35.50;;;5.07;;
4835;SDS011;66719;51.226;6.902;2023-12-20T11:46:20;29.57;;;5.03;;
4835;SDS011;66719;51.226;6.902;2023-12-20T11:48:47;22.90;;;4.90;;
4835;SDS011;66719;51.226;6.902;2023-12-20T11:51:14;27.97;;;5.07;;
4835;SDS011;66719;51.226;6.902;2023-12-20T11:53:41;27.73;;;5.27;;
4835;SDS011;66719;51.226;6.902;2023-12-20T11:56:09;23.63;;;5.03;;
4835;SDS011;66719;51.226;6.902;2023-12-20T11:58:36;26.33;;;4.87;;
4835;SDS011;66719;51.226;6.902;2023-12-20T12:01:03;26.27;;;4.30;;
4835;SDS011;66719;51.226;6.902;2023-12-20T12:03:31;26.87;;;7.73;;
4835;SDS011;66719;51.226;6.902;2023-12-20T12:05:57;27.80;;;5.40;;
4835;SDS011;66719;51.226;6.902;2023-12-20T12:08:24;21.80;;;4.77;;
4835;SDS011;66719;51.226;6.902;2023-12-20T12:10:51;25.30;;;4.33;;
4835;SDS011;66719;51.226;6.902;2023-12-20T12:13:18;21.63;;;4.70;;
4835;SDS011;66719;51.226;6.902;2023-12-20T12:15:44;22.00;;;4.33;;
4835;SDS011;66719;51.226;6.902;2023-12-20T12:18:14;37.93;;;4.70;;
4835;SDS011;66719;51.226;6.902;2023-12-20T12:20:42;26.87;;;4.80;;
4835;SDS011;66719;51.226;6.902;2023-12-20T12:23:09;28.00;;;5.50;;
4835;SDS011;66719;51.226;6.902;2023-12-20T12:25:36;22.70;;;4.63;;
4835;SDS011;66719;51.226;6.902;2023-12-20T12:28:08;22.87;;;4.33;;
4835;SDS011;66719;51.226;6.902;2023-12-20T12:30:35;22.97;;;3.77;;
4835;SDS011;66719;51.226;6.902;2023-12-20T12:33:11;24.00;;;5.27;;
4835;SDS011;66719;51.226;6.902;2023-12-20T12:35:39;19.33;;;4.23;;
4835;SDS011;66719;51.226;6.902;2023-12-20T12:38:06;19.20;;;4.83;;
4835;SDS011;66719;51.226;6.902;2023-12-20T12:40:34;20.40;;;5.13;;
4835;SDS011;66719;51.226;6.902;2023-12-20T12:43:02;22.90;;;4.53;;
4835;SDS011;66719;51.226;6.902;2023-12-20T12:45:30;24.97;;;5.93;;
4835;SDS011;66719;51.226;6.902;2023-12-20T12:47:57;28.03;;;6.00;;
4835;SDS011;66719;51.226;6.902;2023-12-20T12:50:23;27.60;;;7.00;;
4835;SDS011;66719;51.226;6.902;2023-12-20T12:52:51;28.53;;;5.60;;
4835;SDS011;66719;51.226;6.902;2023-12-20T12:55:17;34.00;;;7.30;;
4835;SDS011;66719;51.226;6.902;2023-12-20T12:57:44;29.37;;;6.63;;
4835;SDS011;66719;51.226;6.902;2023-12-20T13:00:11;25.30;;;6.47;;
4835;SDS011;66719;51.226;6.902;2023-12-20T13:02:38;21.00;;;5.60;;
4835;SDS011;66719;51.226;6.902;2023-12-20T13:05:08;23.10;;;4.70;;
4835;SDS011;66719;51.226;6.902;2023-12-20T13:07:35;26.20;;;5.73;;
4835;SDS011;66719;51.226;6.902;2023-12-20T13:10:04;31.90;;;7.70;;
4835;SDS011;66719;51.226;6.902;2023-12-20T13:12:32;29.97;;;6.03;;
4835;SDS011;66719;51.226;6.902;2023-12-20T13:14:58;26.97;;;5.47;;
4835;SDS011;66719;51.226;6.902;2023-12-20T13:17:25;25.73;;;5.40;;
4835;SDS011;66719;51.226;6.902;2023-12-20T13:19:55;27.47;;;5.30;;
4835;SDS011;66719;51.226;6.902;2023-12-20T13:22:21;30.30;;;7.20;;
4835;SDS011;66719;51.226;6.902;2023-12-20T13:24:48;25.53;;;5.70;;
4835;SDS011;66719;51.226;6.902;2023-12-20T13:27:15;21.37;;;5.90;;
4835;SDS011;66719;51.226;6.902;2023-12-20T13:29:41;23.40;;;5.83;;
4835;SDS011;66719;51.226;6.902;2023-12-20T13:32:08;29.83;;;6.03;;
4835;SDS011;66719;51.226;6.902;2023-12-20T13:34:35;20.43;;;5.53;;
4835;SDS011;66719;51.226;6.902;2023-12-20T13:37:02;28.90;;;6.50;;
4835;SDS011;66719;51.226;6.902;2023-12-20T13:39:29;23.77;;;5.53;;
4835;SDS011;66719;51.226;6.902;2023-12-20T13:41:57;26.60;;;6.40;;
4835;SDS011;66719;51.226;6.902;2023-12-20T13:44:26;27.83;;;7.33;;
4835;SDS011;66719;51.226;6.902;2023-12-20T13:46:53;24.90;;;6.20;;
4835;SDS011;66719;51.226;6.902;2023-12-20T13:49:19;34.60;;;6.40;;
4835;SDS011;66719;51.226;6.902;2023-12-20T13:51:47;22.33;;;5.37;;
4835;SDS011;66719;51.226;6.902;2023-12-20T13:54:14;30.53;;;7.60;;
4835;SDS011;66719;51.226;6.902;2023-12-20T13:56:43;20.80;;;6.70;;
4835;SDS011;66719;51.226;6.902;2023-12-20T13:59:27;21.03;;;6.27;;
4835;SDS011;66719;51.226;6.902;2023-12-20T14:01:53;23.87;;;5.00;;
4835;SDS011;66719;51.226;6.902;2023-12-20T14:04:20;23.60;;;6.23;;
4835;SDS011;66719;51.226;6.902;2023-12-20T14:07:08;27.10;;;6.07;;
4835;SDS011;66719;51.226;6.902;2023-12-20T14:09:36;22.90;;;6.40;;
4835;SDS011;66719;51.226;6.902;2023-12-20T14:12:02;21.83;;;5.17;;
4835;SDS011;66719;51.226;6.902;2023-12-20T14:14:29;32.37;;;5.70;;
4835;SDS011;66719;51.226;6.902;2023-12-20T14:16:56;26.97;;;5.90;;
4835;SDS011;66719;51.226;6.902;2023-12-20T14:19:22;26.07;;;6.03;;
4835;SDS011;66719;51.226;6.902;2023-12-20T14:21:49;24.00;;;5.53;;
4835;SDS011;66719;51.226;6.902;2023-12-20T14:24:16;18.23;;;5.30;;
4835;SDS011;66719;51.226;6.902;2023-12-20T14:26:42;26.67;;;5.60;;
4835;SDS011;66719;51.226;6.902;2023-12-20T14:29:09;24.33;;;4.80;;
4835;SDS011;66719;51.226;6.902;2023-12-20T14:31:35;22.03;;;5.10;;
4835;SDS011;66719;51.226;6.902;2023-12-20T14:34:05;26.10;;;5.50;;
4835;SDS011;66719;51.226;6.902;2023-12-20T14:36:33;28.43;;;4.83;;
4835;SDS011;66719;51.226;6.902;2023-12-20T14:39:00;18.83;;;5.50;;
4835;SDS011;66719;51.226;6.902;2023-12-20T14:41:27;21.93;;;5.57;;
4835;SDS011;66719;51.226;6.902;2023-12-20T14:43:57;25.27;;;5.93;;
4835;SDS011;66719;51.226;6.902;2023-12-20T14:46:25;21.10;;;5.50;;
4835;SDS011;66719;51.226;6.902;2023-12-20T14:48:52;21.90;;;4.60;;
4835;SDS011;66719;51.226;6.902;2023-12-20T14:51:19;21.10;;;5.70;;
4835;SDS011;66719;51.226;6.902;2023-12-20T14:53:45;24.40;;;5.23;;
4835;SDS011;66719;51.226;6.902;2023-12-20T14:56:13;20.50;;;5.03;;